sensor_id;sensor_type;location;lat;lon;timestamp;P1;durP1;ratioP1;P2;durP2;ratioP2
23362;SDS011;11853;48.080;11.960;2023-07-20T00:01:24;7.72;;;4.60;;
23362;SDS011;11853;48.080;11.960;2023-07-20T00:03:49;8.00;;;4.50;;
23362;SDS011;11853;48.080;11.960;2023-07-20T00:06:20;7.63;;;4.00;;
23362;SDS011;11853;48.080;11.960;2023-07-20T00:08:46;6.68;;;3.90;;
23362;SDS011;11853;48.080;11.960;2023-07-20T00:11:12;4.70;;;3.75;;
23362;SDS011;11853;48.080;11.960;2023-07-20T00:13:39;5.78;;;4.20;;
23362;SDS011;11853;48.080;11.960;2023-07-20T00:16:04;7.75;;;4.20;;
23362;SDS011;11853;48.080;11.960;2023-07-20T00:18:30;8.52;;;4.75;;
23362;SDS011;11853;48.080;11.960;2023-07-20T00:20:56;7.28;;;4.65;;
23362;SDS011;11853;48.080;11.960;2023-07-20T00:23:21;5.93;;;4.15;;
23362;SDS011;11853;48.080;11.960;2023-07-20T00:25:48;8.20;;;4.75;;
23362;SDS011;11853;48.080;11.960;2023-07-20T00:28:14;7.50;;;4.38;;
23362;SDS011;11853;48.080;11.960;2023-07-20T00:30:40;5.93;;;4.43;;
23362;SDS011;11853;48.080;11.960;2023-07-20T00:33:10;6.93;;;4.30;;
23362;SDS011;11853;48.080;11.960;2023-07-20T00:35:36;11.32;;;4.40;;
23362;SDS011;11853;48.080;11.960;2023-07-20T00:38:03;5.95;;;3.75;;
23362;SDS011;11853;48.080;11.960;2023-07-20T00:40:34;6.97;;;4.40;;
23362;SDS011;11853;48.080;11.960;2023-07-20T00:43:02;6.53;;;4.03;;
23362;SDS011;11853;48.080;11.960;2023-07-20T00:45:28;6.10;;;4.53;;
23362;SDS011;11853;48.080;11.960;2023-07-20T00:47:55;6.65;;;4.47;;
23362;SDS011;11853;48.080;11.960;2023-07-20T00:50:22;4.53;;;3.83;;
23362;SDS011;11853;48.080;11.960;2023-07-20T00:52:48;6.82;;;4.70;;
23362;SDS011;11853;48.080;11.960;2023-07-20T00:55:14;8.18;;;4.80;;
23362;SDS011;11853;48.080;11.960;2023-07-20T00:57:40;6.32;;;4.05;;
23362;SDS011;11853;48.080;11.960;2023-07-20T01:00:06;8.30;;;4.68;;
23362;SDS011;11853;48.080;11.960;2023-07-20T01:02:32;8.20;;;5.03;;
23362;SDS011;11853;48.080;11.960;2023-07-20T01:04:58;5.93;;;4.75;;
23362;SDS011;11853;48.080;11.960;2023-07-20T01:07:31;8.88;;;5.03;;
23362;SDS011;11853;48.080;11.960;2023-07-20T01:10:10;7.65;;;4.60;;
23362;SDS011;11853;48.080;11.960;2023-07-20T01:12:43;7.40;;;4.85;;
23362;SDS011;11853;48.080;11.960;2023-07-20T01:15:12;7.60;;;4.57;;
23362;SDS011;11853;48.080;11.960;2023-07-20T01:17:38;7.88;;;4.72;;
23362;SDS011;11853;48.080;11.960;2023-07-20T01:20:05;5.93;;;4.60;;
23362;SDS011;11853;48.080;11.960;2023-07-20T01:33:47;7.72;;;5.20;;
23362;SDS011;11853;48.080;11.960;2023-07-20T01:36:16;5.70;;;4.63;;
23362;SDS011;11853;48.080;11.960;2023-07-20T01:38:43;7.07;;;4.90;;
23362;SDS011;11853;48.080;11.960;2023-07-20T01:41:09;4.97;;;4.35;;
23362;SDS011;11853;48.080;11.960;2023-07-20T01:43:36;9.18;;;5.00;;
23362;SDS011;11853;48.080;11.960;2023-07-20T01:46:01;6.32;;;4.05;;
23362;SDS011;11853;48.080;11.960;2023-07-20T01:48:27;6.05;;;4.78;;
23362;SDS011;11853;48.080;11.960;2023-07-20T01:50:53;8.07;;;4.38;;
23362;SDS011;11853;48.080;11.960;2023-07-20T01:53:19;6.82;;;4.78;;
23362;SDS011;11853;48.080;11.960;2023-07-20T01:55:45;4.93;;;4.43;;
23362;SDS011;11853;48.080;11.960;2023-07-20T01:58:11;5.35;;;4.40;;
23362;SDS011;11853;48.080;11.960;2023-07-20T02:00:37;4.68;;;4.18;;
23362;SDS011;11853;48.080;11.960;2023-07-20T02:03:03;4.70;;;4.30;;
23362;SDS011;11853;48.080;11.960;2023-07-20T02:05:29;5.60;;;4.25;;
23362;SDS011;11853;48.080;11.960;2023-07-20T02:07:55;4.50;;;4.10;;
23362;SDS011;11853;48.080;11.960;2023-07-20T02:10:21;4.97;;;3.90;;
23362;SDS011;11853;48.080;11.960;2023-07-20T02:12:47;6.53;;;4.45;;
23362;SDS011;11853;48.080;11.960;2023-07-20T02:15:13;5.03;;;4.15;;
23362;SDS011;11853;48.080;11.960;2023-07-20T02:17:41;8.93;;;4.40;;
23362;SDS011;11853;48.080;11.960;2023-07-20T02:20:08;6.80;;;4.60;;
23362;SDS011;11853;48.080;11.960;2023-07-20T02:22:35;5.65;;;4.30;;
23362;SDS011;11853;48.080;11.960;2023-07-20T02:25:03;6.25;;;4.15;;
23362;SDS011;11853;48.080;11.960;2023-07-20T02:27:30;4.50;;;4.10;;
23362;SDS011;11853;48.080;11.960;2023-07-20T02:29:55;6.28;;;4.28;;
23362;SDS011;11853;48.080;11.960;2023-07-20T02:32:21;6.75;;;3.72;;
23362;SDS011;11853;48.080;11.960;2023-07-20T02:34:47;5.38;;;3.78;;
23362;SDS011;11853;48.080;11.960;2023-07-20T02:37:13;6.68;;;4.10;;
23362;SDS011;11853;48.080;11.960;2023-07-20T02:39:39;4.63;;;3.63;;
23362;SDS011;11853;48.080;11.960;2023-07-20T02:42:05;6.60;;;3.85;;
23362;SDS011;11853;48.080;11.960;2023-07-20T02:44:31;5.63;;;3.72;;
23362;SDS011;11853;48.080;11.960;2023-07-20T02:46:56;5.13;;;3.92;;
23362;SDS011;11853;48.080;11.960;2023-07-20T02:49:22;6.47;;;3.45;;
23362;SDS011;11853;48.080;11.960;2023-07-20T02:51:48;5.30;;;3.70;;
23362;SDS011;11853;48.080;11.960;2023-07-20T02:54:14;12.02;;;4.05;;
23362;SDS011;11853;48.080;11.960;2023-07-20T02:56:40;4.63;;;3.33;;
23362;SDS011;11853;48.080;11.960;2023-07-20T02:59:05;5.43;;;3.80;;
23362;SDS011;11853;48.080;11.960;2023-07-20T03:01:31;5.43;;;3.50;;
23362;SDS011;11853;48.080;11.960;2023-07-20T03:03:57;3.95;;;3.55;;
23362;SDS011;11853;48.080;11.960;2023-07-20T03:06:22;7.22;;;3.45;;
23362;SDS011;11853;48.080;11.960;2023-07-20T03:08:48;7.22;;;3.70;;
23362;SDS011;11853;48.080;11.960;2023-07-20T03:11:17;5.78;;;3.50;;
23362;SDS011;11853;48.080;11.960;2023-07-20T03:14:02;4.72;;;3.47;;
23362;SDS011;11853;48.080;11.960;2023-07-20T03:16:27;4.30;;;3.42;;
23362;SDS011;11853;48.080;11.960;2023-07-20T03:18:53;6.18;;;3.85;;
23362;SDS011;11853;48.080;11.960;2023-07-20T03:21:18;5.20;;;3.42;;
23362;SDS011;11853;48.080;11.960;2023-07-20T03:23:44;4.47;;;3.67;;
23362;SDS011;11853;48.080;11.960;2023-07-20T03:26:09;6.72;;;3.90;;
23362;SDS011;11853;48.080;11.960;2023-07-20T03:28:35;5.07;;;3.20;;
23362;SDS011;11853;48.080;11.960;2023-07-20T03:31:01;5.53;;;3.20;;
23362;SDS011;11853;48.080;11.960;2023-07-20T03:33:30;5.28;;;3.10;;
23362;SDS011;11853;48.080;11.960;2023-07-20T03:35:56;4.28;;;3.28;;
23362;SDS011;11853;48.080;11.960;2023-07-20T03:38:23;6.55;;;2.97;;
23362;SDS011;11853;48.080;11.960;2023-07-20T03:40:55;5.35;;;2.88;;
23362;SDS011;11853;48.080;11.960;2023-07-20T03:43:22;4.53;;;3.20;;
23362;SDS011;11853;48.080;11.960;2023-07-20T03:45:49;5.28;;;2.83;;
23362;SDS011;11853;48.080;11.960;2023-07-20T03:48:15;5.32;;;2.53;;
23362;SDS011;11853;48.080;11.960;2023-07-20T03:50:43;4.35;;;2.83;;
23362;SDS011;11853;48.080;11.960;2023-07-20T03:53:10;3.20;;;2.40;;
23362;SDS011;11853;48.080;11.960;2023-07-20T03:55:35;3.53;;;2.90;;
23362;SDS011;11853;48.080;11.960;2023-07-20T03:58:01;3.72;;;2.40;;
23362;SDS011;11853;48.080;11.960;2023-07-20T04:00:26;4.68;;;3.35;;
23362;SDS011;11853;48.080;11.960;2023-07-20T04:02:52;3.90;;;2.60;;
23362;SDS011;11853;48.080;11.960;2023-07-20T04:05:18;4.10;;;2.70;;
23362;SDS011;11853;48.080;11.960;2023-07-20T04:07:43;5.32;;;2.92;;
23362;SDS011;11853;48.080;11.960;2023-07-20T04:10:09;3.33;;;2.72;;
23362;SDS011;11853;48.080;11.960;2023-07-20T04:12:35;4.45;;;2.50;;
23362;SDS011;11853;48.080;11.960;2023-07-20T04:15:01;3.72;;;2.50;;
23362;SDS011;11853;48.080;11.960;2023-07-20T04:17:26;7.13;;;2.53;;
23362;SDS011;11853;48.080;11.960;2023-07-20T04:19:52;3.65;;;2.20;;
23362;SDS011;11853;48.080;11.960;2023-07-20T04:22:17;2.92;;;2.67;;
23362;SDS011;11853;48.080;11.960;2023-07-20T04:24:43;3.85;;;2.42;;
23362;SDS011;11853;48.080;11.960;2023-07-20T04:27:08;3.42;;;2.20;;
23362;SDS011;11853;48.080;11.960;2023-07-20T04:29:34;2.40;;;2.20;;
23362;SDS011;11853;48.080;11.960;2023-07-20T04:31:59;2.63;;;2.28;;
23362;SDS011;11853;48.080;11.960;2023-07-20T04:34:25;3.33;;;2.50;;
23362;SDS011;11853;48.080;11.960;2023-07-20T04:36:50;3.90;;;2.50;;
23362;SDS011;11853;48.080;11.960;2023-07-20T04:39:16;2.55;;;2.10;;
23362;SDS011;11853;48.080;11.960;2023-07-20T04:41:42;4.18;;;2.47;;
23362;SDS011;11853;48.080;11.960;2023-07-20T04:44:07;3.00;;;2.30;;
23362;SDS011;11853;48.080;11.960;2023-07-20T04:46:33;3.85;;;1.85;;
23362;SDS011;11853;48.080;11.960;2023-07-20T04:48:58;3.30;;;2.17;;
23362;SDS011;11853;48.080;11.960;2023-07-20T04:51:24;2.85;;;2.47;;
23362;SDS011;11853;48.080;11.960;2023-07-20T04:53:49;4.43;;;2.30;;
23362;SDS011;11853;48.080;11.960;2023-07-20T04:56:15;4.45;;;2.30;;
23362;SDS011;11853;48.080;11.960;2023-07-20T04:58:41;2.40;;;2.20;;
23362;SDS011;11853;48.080;11.960;2023-07-20T05:01:07;3.05;;;2.08;;
23362;SDS011;11853;48.080;11.960;2023-07-20T05:03:33;6.25;;;2.03;;
23362;SDS011;11853;48.080;11.960;2023-07-20T05:05:59;2.58;;;1.88;;
23362;SDS011;11853;48.080;11.960;2023-07-20T05:08:24;2.63;;;2.20;;
23362;SDS011;11853;48.080;11.960;2023-07-20T05:10:50;2.63;;;1.95;;
23362;SDS011;11853;48.080;11.960;2023-07-20T05:13:16;2.38;;;2.00;;
23362;SDS011;11853;48.080;11.960;2023-07-20T05:15:42;5.22;;;2.30;;
23362;SDS011;11853;48.080;11.960;2023-07-20T05:18:07;2.65;;;2.20;;
23362;SDS011;11853;48.080;11.960;2023-07-20T05:20:34;2.92;;;2.33;;
23362;SDS011;11853;48.080;11.960;2023-07-20T05:22:59;3.53;;;2.30;;
23362;SDS011;11853;48.080;11.960;2023-07-20T05:25:26;5.65;;;2.55;;
23362;SDS011;11853;48.080;11.960;2023-07-20T05:27:51;3.00;;;2.10;;
23362;SDS011;11853;48.080;11.960;2023-07-20T05:30:17;3.42;;;2.17;;
23362;SDS011;11853;48.080;11.960;2023-07-20T05:32:44;3.53;;;2.40;;
23362;SDS011;11853;48.080;11.960;2023-07-20T05:35:12;6.22;;;2.40;;
23362;SDS011;11853;48.080;11.960;2023-07-20T05:37:39;3.22;;;1.98;;
23362;SDS011;11853;48.080;11.960;2023-07-20T05:40:05;2.50;;;1.90;;
23362;SDS011;11853;48.080;11.960;2023-07-20T05:42:33;4.05;;;2.00;;
23362;SDS011;11853;48.080;11.960;2023-07-20T05:44:58;3.13;;;2.10;;
23362;SDS011;11853;48.080;11.960;2023-07-20T05:47:24;3.30;;;2.20;;
23362;SDS011;11853;48.080;11.960;2023-07-20T05:49:49;4.20;;;2.00;;
23362;SDS011;11853;48.080;11.960;2023-07-20T05:52:15;2.30;;;2.05;;
23362;SDS011;11853;48.080;11.960;2023-07-20T05:54:40;3.60;;;1.90;;
23362;SDS011;11853;48.080;11.960;2023-07-20T05:57:06;3.50;;;2.30;;
23362;SDS011;11853;48.080;11.960;2023-07-20T05:59:33;3.55;;;2.17;;
23362;SDS011;11853;48.080;11.960;2023-07-20T06:01:58;2.80;;;1.80;;
23362;SDS011;11853;48.080;11.960;2023-07-20T06:04:24;2.22;;;2.03;;
23362;SDS011;11853;48.080;11.960;2023-07-20T06:06:49;2.78;;;2.03;;
23362;SDS011;11853;48.080;11.960;2023-07-20T06:09:15;3.28;;;2.33;;
23362;SDS011;11853;48.080;11.960;2023-07-20T06:11:40;2.53;;;2.28;;
23362;SDS011;11853;48.080;11.960;2023-07-20T06:14:06;4.70;;;2.35;;
23362;SDS011;11853;48.080;11.960;2023-07-20T06:16:31;2.42;;;1.98;;
23362;SDS011;11853;48.080;11.960;2023-07-20T06:18:58;3.03;;;2.33;;
23362;SDS011;11853;48.080;11.960;2023-07-20T06:21:25;5.07;;;2.35;;
23362;SDS011;11853;48.080;11.960;2023-07-20T06:23:53;3.10;;;2.28;;
23362;SDS011;11853;48.080;11.960;2023-07-20T06:26:19;3.15;;;2.67;;
23362;SDS011;11853;48.080;11.960;2023-07-20T06:28:45;5.00;;;2.80;;
23362;SDS011;11853;48.080;11.960;2023-07-20T06:31:11;3.60;;;2.50;;
23362;SDS011;11853;48.080;11.960;2023-07-20T06:33:37;3.10;;;2.35;;
23362;SDS011;11853;48.080;11.960;2023-07-20T06:36:03;3.88;;;2.28;;
23362;SDS011;11853;48.080;11.960;2023-07-20T06:38:29;3.45;;;2.75;;
23362;SDS011;11853;48.080;11.960;2023-07-20T06:40:55;2.88;;;2.00;;
23362;SDS011;11853;48.080;11.960;2023-07-20T06:43:20;3.75;;;2.28;;
23362;SDS011;11853;48.080;11.960;2023-07-20T06:45:50;2.72;;;2.08;;
23362;SDS011;11853;48.080;11.960;2023-07-20T06:48:18;3.75;;;2.42;;
23362;SDS011;11853;48.080;11.960;2023-07-20T06:50:44;3.20;;;2.05;;
23362;SDS011;11853;48.080;11.960;2023-07-20T06:53:09;3.05;;;2.30;;
23362;SDS011;11853;48.080;11.960;2023-07-20T06:55:35;5.80;;;2.53;;
23362;SDS011;11853;48.080;11.960;2023-07-20T06:58:00;2.90;;;2.45;;
23362;SDS011;11853;48.080;11.960;2023-07-20T07:00:26;4.32;;;2.70;;
23362;SDS011;11853;48.080;11.960;2023-07-20T07:02:51;2.90;;;2.28;;
23362;SDS011;11853;48.080;11.960;2023-07-20T07:05:17;2.85;;;2.28;;
23362;SDS011;11853;48.080;11.960;2023-07-20T07:07:43;4.43;;;2.28;;
23362;SDS011;11853;48.080;11.960;2023-07-20T07:10:09;2.78;;;2.40;;
23362;SDS011;11853;48.080;11.960;2023-07-20T07:12:34;3.58;;;2.10;;
23362;SDS011;11853;48.080;11.960;2023-07-20T07:15:01;3.83;;;2.50;;
23362;SDS011;11853;48.080;11.960;2023-07-20T07:17:27;6.25;;;2.65;;
23362;SDS011;11853;48.080;11.960;2023-07-20T07:19:53;2.33;;;2.13;;
23362;SDS011;11853;48.080;11.960;2023-07-20T07:22:21;3.40;;;2.40;;
23362;SDS011;11853;48.080;11.960;2023-07-20T07:24:47;4.72;;;2.40;;
23362;SDS011;11853;48.080;11.960;2023-07-20T07:27:12;3.55;;;2.92;;
23362;SDS011;11853;48.080;11.960;2023-07-20T07:29:41;3.90;;;2.25;;
23362;SDS011;11853;48.080;11.960;2023-07-20T07:32:09;2.53;;;2.30;;
23362;SDS011;11853;48.080;11.960;2023-07-20T07:34:35;4.90;;;2.80;;
23362;SDS011;11853;48.080;11.960;2023-07-20T07:37:01;3.00;;;2.53;;
23362;SDS011;11853;48.080;11.960;2023-07-20T07:39:26;3.47;;;2.47;;
23362;SDS011;11853;48.080;11.960;2023-07-20T07:41:52;2.90;;;2.58;;
23362;SDS011;11853;48.080;11.960;2023-07-20T07:44:18;3.03;;;2.53;;
23362;SDS011;11853;48.080;11.960;2023-07-20T07:46:43;2.95;;;2.55;;
23362;SDS011;11853;48.080;11.960;2023-07-20T07:49:09;3.75;;;2.47;;
23362;SDS011;11853;48.080;11.960;2023-07-20T07:51:34;3.00;;;2.40;;
23362;SDS011;11853;48.080;11.960;2023-07-20T07:54:00;2.53;;;2.28;;
23362;SDS011;11853;48.080;11.960;2023-07-20T07:56:25;5.20;;;2.42;;
23362;SDS011;11853;48.080;11.960;2023-07-20T07:58:51;5.80;;;2.35;;
23362;SDS011;11853;48.080;11.960;2023-07-20T08:01:19;3.40;;;2.45;;
23362;SDS011;11853;48.080;11.960;2023-07-20T08:03:45;4.32;;;2.63;;
23362;SDS011;11853;48.080;11.960;2023-07-20T08:06:15;4.95;;;2.42;;
23362;SDS011;11853;48.080;11.960;2023-07-20T08:08:41;2.92;;;2.50;;
23362;SDS011;11853;48.080;11.960;2023-07-20T08:11:07;4.30;;;2.28;;
23362;SDS011;11853;48.080;11.960;2023-07-20T08:13:33;2.63;;;2.30;;
23362;SDS011;11853;48.080;11.960;2023-07-20T08:15:59;4.95;;;2.25;;
23362;SDS011;11853;48.080;11.960;2023-07-20T08:18:27;2.42;;;2.15;;
23362;SDS011;11853;48.080;11.960;2023-07-20T08:20:53;4.13;;;2.50;;
23362;SDS011;11853;48.080;11.960;2023-07-20T08:23:19;2.75;;;2.20;;
23362;SDS011;11853;48.080;11.960;2023-07-20T08:25:52;4.72;;;2.60;;
23362;SDS011;11853;48.080;11.960;2023-07-20T08:28:18;2.92;;;2.20;;
23362;SDS011;11853;48.080;11.960;2023-07-20T08:30:47;5.78;;;2.50;;
23362;SDS011;11853;48.080;11.960;2023-07-20T08:33:20;2.40;;;1.98;;
23362;SDS011;11853;48.080;11.960;2023-07-20T08:35:46;4.70;;;2.58;;
23362;SDS011;11853;48.080;11.960;2023-07-20T08:38:12;2.83;;;2.00;;
23362;SDS011;11853;48.080;11.960;2023-07-20T08:40:39;4.68;;;2.38;;
23362;SDS011;11853;48.080;11.960;2023-07-20T08:43:15;3.13;;;2.20;;
23362;SDS011;11853;48.080;11.960;2023-07-20T08:45:44;3.33;;;2.20;;
23362;SDS011;11853;48.080;11.960;2023-07-20T08:48:10;2.22;;;2.03;;
23362;SDS011;11853;48.080;11.960;2023-07-20T08:50:37;3.33;;;2.38;;
23362;SDS011;11853;48.080;11.960;2023-07-20T08:53:03;2.35;;;2.15;;
23362;SDS011;11853;48.080;11.960;2023-07-20T08:55:29;2.63;;;2.10;;
23362;SDS011;11853;48.080;11.960;2023-07-20T08:57:56;4.57;;;2.35;;
23362;SDS011;11853;48.080;11.960;2023-07-20T09:00:25;3.63;;;2.17;;
23362;SDS011;11853;48.080;11.960;2023-07-20T09:02:55;2.67;;;2.42;;
23362;SDS011;11853;48.080;11.960;2023-07-20T09:05:22;2.63;;;2.30;;
23362;SDS011;11853;48.080;11.960;2023-07-20T09:07:50;4.93;;;2.50;;
23362;SDS011;11853;48.080;11.960;2023-07-20T09:10:17;2.40;;;2.20;;
23362;SDS011;11853;48.080;11.960;2023-07-20T09:12:43;4.80;;;2.40;;
23362;SDS011;11853;48.080;11.960;2023-07-20T09:15:10;2.65;;;2.38;;
23362;SDS011;11853;48.080;11.960;2023-07-20T09:17:36;5.38;;;2.80;;
23362;SDS011;11853;48.080;11.960;2023-07-20T09:20:06;2.45;;;2.10;;
23362;SDS011;11853;48.080;11.960;2023-07-20T09:22:37;4.55;;;2.53;;
23362;SDS011;11853;48.080;11.960;2023-07-20T09:25:07;3.22;;;2.60;;
23362;SDS011;11853;48.080;11.960;2023-07-20T09:27:40;3.63;;;2.63;;
23362;SDS011;11853;48.080;11.960;2023-07-20T09:30:08;3.03;;;2.35;;
23362;SDS011;11853;48.080;11.960;2023-07-20T09:32:43;4.80;;;2.90;;
23362;SDS011;11853;48.080;11.960;2023-07-20T09:35:22;4.05;;;2.70;;
23362;SDS011;11853;48.080;11.960;2023-07-20T09:40:19;3.00;;;2.40;;
23362;SDS011;11853;48.080;11.960;2023-07-20T09:42:46;3.67;;;2.50;;
23362;SDS011;11853;48.080;11.960;2023-07-20T09:45:15;4.18;;;2.40;;
23362;SDS011;11853;48.080;11.960;2023-07-20T09:47:41;2.58;;;2.20;;
23362;SDS011;11853;48.080;11.960;2023-07-20T09:50:07;2.90;;;2.60;;
23362;SDS011;11853;48.080;11.960;2023-07-20T09:52:39;4.03;;;2.40;;
23362;SDS011;11853;48.080;11.960;2023-07-20T09:55:08;3.72;;;2.58;;
23362;SDS011;11853;48.080;11.960;2023-07-20T09:57:36;4.18;;;2.40;;
23362;SDS011;11853;48.080;11.960;2023-07-20T10:00:03;4.18;;;2.60;;
23362;SDS011;11853;48.080;11.960;2023-07-20T10:02:36;2.78;;;2.55;;
23362;SDS011;11853;48.080;11.960;2023-07-20T10:05:08;2.90;;;2.22;;
23362;SDS011;11853;48.080;11.960;2023-07-20T10:07:39;2.67;;;2.28;;
23362;SDS011;11853;48.080;11.960;2023-07-20T10:10:09;2.85;;;2.22;;
23362;SDS011;11853;48.080;11.960;2023-07-20T10:12:36;4.35;;;2.30;;
23362;SDS011;11853;48.080;11.960;2023-07-20T10:17:37;2.65;;;2.45;;
23362;SDS011;11853;48.080;11.960;2023-07-20T10:20:15;3.20;;;2.50;;
23362;SDS011;11853;48.080;11.960;2023-07-20T10:22:45;4.60;;;2.20;;
23362;SDS011;11853;48.080;11.960;2023-07-20T10:25:15;2.45;;;2.15;;
23362;SDS011;11853;48.080;11.960;2023-07-20T10:27:41;2.88;;;2.50;;
23362;SDS011;11853;48.080;11.960;2023-07-20T10:30:08;2.80;;;2.40;;
23362;SDS011;11853;48.080;11.960;2023-07-20T10:32:34;2.60;;;2.20;;
23362;SDS011;11853;48.080;11.960;2023-07-20T10:35:00;3.03;;;2.25;;
23362;SDS011;11853;48.080;11.960;2023-07-20T10:40:29;4.75;;;2.10;;
23362;SDS011;11853;48.080;11.960;2023-07-20T10:43:00;3.38;;;2.30;;
23362;SDS011;11853;48.080;11.960;2023-07-20T10:45:42;3.72;;;2.38;;
23362;SDS011;11853;48.080;11.960;2023-07-20T10:48:21;4.70;;;2.40;;
23362;SDS011;11853;48.080;11.960;2023-07-20T10:53:48;2.30;;;2.10;;
23362;SDS011;11853;48.080;11.960;2023-07-20T10:56:19;2.00;;;1.88;;
23362;SDS011;11853;48.080;11.960;2023-07-20T10:58:46;3.33;;;2.15;;
23362;SDS011;11853;48.080;11.960;2023-07-20T11:01:15;2.38;;;2.03;;
23362;SDS011;11853;48.080;11.960;2023-07-20T11:03:42;3.88;;;2.20;;
23362;SDS011;11853;48.080;11.960;2023-07-20T11:08:57;1.95;;;1.85;;
23362;SDS011;11853;48.080;11.960;2023-07-20T11:11:36;2.78;;;2.15;;
23362;SDS011;11853;48.080;11.960;2023-07-20T11:14:04;2.25;;;2.00;;
23362;SDS011;11853;48.080;11.960;2023-07-20T11:19:16;2.63;;;2.13;;
23362;SDS011;11853;48.080;11.960;2023-07-20T11:21:42;3.33;;;2.15;;
23362;SDS011;11853;48.080;11.960;2023-07-20T11:24:09;2.97;;;2.13;;
23362;SDS011;11853;48.080;11.960;2023-07-20T11:29:07;3.58;;;2.55;;
23362;SDS011;11853;48.080;11.960;2023-07-20T11:31:36;1.98;;;1.88;;
23362;SDS011;11853;48.080;11.960;2023-07-20T11:34:03;2.30;;;2.10;;
23362;SDS011;11853;48.080;11.960;2023-07-20T11:36:28;2.47;;;2.28;;
23362;SDS011;11853;48.080;11.960;2023-07-20T11:38:54;2.40;;;2.20;;
23362;SDS011;11853;48.080;11.960;2023-07-20T11:41:20;3.42;;;2.53;;
23362;SDS011;11853;48.080;11.960;2023-07-20T11:43:46;2.22;;;1.92;;
23362;SDS011;11853;48.080;11.960;2023-07-20T11:46:12;3.63;;;2.22;;
23362;SDS011;11853;48.080;11.960;2023-07-20T11:48:38;2.47;;;2.28;;
23362;SDS011;11853;48.080;11.960;2023-07-20T11:51:05;2.00;;;1.90;;
23362;SDS011;11853;48.080;11.960;2023-07-20T11:53:31;2.13;;;1.92;;
23362;SDS011;11853;48.080;11.960;2023-07-20T11:55:58;3.88;;;2.42;;
23362;SDS011;11853;48.080;11.960;2023-07-20T11:58:24;2.42;;;2.22;;
23362;SDS011;11853;48.080;11.960;2023-07-20T12:00:53;2.38;;;2.13;;
23362;SDS011;11853;48.080;11.960;2023-07-20T12:03:20;2.40;;;2.20;;
23362;SDS011;11853;48.080;11.960;2023-07-20T12:05:46;2.33;;;2.13;;
23362;SDS011;11853;48.080;11.960;2023-07-20T12:08:12;2.65;;;2.30;;
23362;SDS011;11853;48.080;11.960;2023-07-20T12:10:39;2.58;;;2.35;;
23362;SDS011;11853;48.080;11.960;2023-07-20T12:13:09;3.40;;;2.10;;
23362;SDS011;11853;48.080;11.960;2023-07-20T12:15:36;2.25;;;2.05;;
23362;SDS011;11853;48.080;11.960;2023-07-20T12:18:02;3.58;;;2.10;;
23362;SDS011;11853;48.080;11.960;2023-07-20T12:20:32;4.47;;;2.33;;
23362;SDS011;11853;48.080;11.960;2023-07-20T12:23:07;4.28;;;2.20;;
23362;SDS011;11853;48.080;11.960;2023-07-20T12:25:38;3.33;;;2.20;;
23362;SDS011;11853;48.080;11.960;2023-07-20T12:28:06;3.65;;;2.45;;
23362;SDS011;11853;48.080;11.960;2023-07-20T12:30:37;3.55;;;2.30;;
23362;SDS011;11853;48.080;11.960;2023-07-20T12:33:03;3.60;;;2.22;;
23362;SDS011;11853;48.080;11.960;2023-07-20T12:35:30;2.92;;;2.47;;
23362;SDS011;11853;48.080;11.960;2023-07-20T12:37:56;2.75;;;2.17;;
23362;SDS011;11853;48.080;11.960;2023-07-20T12:40:22;5.18;;;2.63;;
23362;SDS011;11853;48.080;11.960;2023-07-20T12:42:48;2.40;;;2.20;;
23362;SDS011;11853;48.080;11.960;2023-07-20T12:45:14;3.53;;;2.42;;
23362;SDS011;11853;48.080;11.960;2023-07-20T12:47:40;3.63;;;2.30;;
23362;SDS011;11853;48.080;11.960;2023-07-20T12:50:09;2.70;;;2.30;;
23362;SDS011;11853;48.080;11.960;2023-07-20T12:52:36;5.88;;;2.30;;
23362;SDS011;11853;48.080;11.960;2023-07-20T12:55:03;4.20;;;2.42;;
23362;SDS011;11853;48.080;11.960;2023-07-20T12:57:30;4.22;;;2.10;;
23362;SDS011;11853;48.080;11.960;2023-07-20T12:59:56;4.38;;;2.40;;
23362;SDS011;11853;48.080;11.960;2023-07-20T13:02:21;2.47;;;2.28;;
23362;SDS011;11853;48.080;11.960;2023-07-20T13:04:48;4.07;;;2.20;;
23362;SDS011;11853;48.080;11.960;2023-07-20T13:07:13;2.33;;;2.05;;
23362;SDS011;11853;48.080;11.960;2023-07-20T13:09:39;2.15;;;2.03;;
23362;SDS011;11853;48.080;11.960;2023-07-20T13:12:05;3.20;;;2.35;;
23362;SDS011;11853;48.080;11.960;2023-07-20T13:14:31;2.72;;;2.30;;
23362;SDS011;11853;48.080;11.960;2023-07-20T13:16:57;3.42;;;2.38;;
23362;SDS011;11853;48.080;11.960;2023-07-20T13:19:22;2.55;;;2.30;;
23362;SDS011;11853;48.080;11.960;2023-07-20T13:21:48;2.10;;;1.90;;
23362;SDS011;11853;48.080;11.960;2023-07-20T13:24:14;3.13;;;2.30;;
23362;SDS011;11853;48.080;11.960;2023-07-20T13:26:40;2.72;;;2.25;;
23362;SDS011;11853;48.080;11.960;2023-07-20T13:29:05;3.10;;;2.47;;
23362;SDS011;11853;48.080;11.960;2023-07-20T13:31:31;2.75;;;2.38;;
23362;SDS011;11853;48.080;11.960;2023-07-20T13:33:57;4.18;;;2.33;;
23362;SDS011;11853;48.080;11.960;2023-07-20T13:36:23;3.72;;;2.40;;
23362;SDS011;11853;48.080;11.960;2023-07-20T13:38:49;4.32;;;2.20;;
23362;SDS011;11853;48.080;11.960;2023-07-20T13:41:14;2.58;;;2.25;;
23362;SDS011;11853;48.080;11.960;2023-07-20T13:43:41;3.50;;;2.20;;
23362;SDS011;11853;48.080;11.960;2023-07-20T13:46:07;2.47;;;2.00;;
23362;SDS011;11853;48.080;11.960;2023-07-20T13:48:33;2.92;;;2.47;;
23362;SDS011;11853;48.080;11.960;2023-07-20T13:50:58;2.00;;;1.90;;
23362;SDS011;11853;48.080;11.960;2023-07-20T13:53:24;2.10;;;2.00;;
23362;SDS011;11853;48.080;11.960;2023-07-20T13:55:49;2.42;;;2.22;;
23362;SDS011;11853;48.080;11.960;2023-07-20T13:58:15;2.90;;;2.20;;
23362;SDS011;11853;48.080;11.960;2023-07-20T14:00:41;2.97;;;2.53;;
23362;SDS011;11853;48.080;11.960;2023-07-20T14:03:06;5.03;;;2.50;;
23362;SDS011;11853;48.080;11.960;2023-07-20T14:05:32;2.30;;;2.10;;
23362;SDS011;11853;48.080;11.960;2023-07-20T14:07:58;2.22;;;2.00;;
23362;SDS011;11853;48.080;11.960;2023-07-20T14:10:24;2.58;;;2.20;;
23362;SDS011;11853;48.080;11.960;2023-07-20T14:12:50;2.35;;;2.15;;
23362;SDS011;11853;48.080;11.960;2023-07-20T14:15:16;2.38;;;2.00;;
23362;SDS011;11853;48.080;11.960;2023-07-20T14:17:42;2.95;;;1.98;;
23362;SDS011;11853;48.080;11.960;2023-07-20T14:20:08;4.03;;;2.17;;
23362;SDS011;11853;48.080;11.960;2023-07-20T14:22:34;2.72;;;2.30;;
23362;SDS011;11853;48.080;11.960;2023-07-20T14:25:00;3.15;;;1.92;;
23362;SDS011;11853;48.080;11.960;2023-07-20T14:27:25;2.97;;;2.40;;
23362;SDS011;11853;48.080;11.960;2023-07-20T14:29:51;5.20;;;2.63;;
23362;SDS011;11853;48.080;11.960;2023-07-20T14:32:18;3.33;;;2.10;;
23362;SDS011;11853;48.080;11.960;2023-07-20T14:34:44;2.65;;;2.10;;
23362;SDS011;11853;48.080;11.960;2023-07-20T14:37:09;5.95;;;2.30;;
23362;SDS011;11853;48.080;11.960;2023-07-20T14:39:35;2.50;;;2.33;;
23362;SDS011;11853;48.080;11.960;2023-07-20T14:42:01;3.25;;;2.47;;
23362;SDS011;11853;48.080;11.960;2023-07-20T14:44:27;2.40;;;2.20;;
23362;SDS011;11853;48.080;11.960;2023-07-20T14:46:52;2.47;;;1.90;;
23362;SDS011;11853;48.080;11.960;2023-07-20T14:49:18;2.67;;;2.33;;
23362;SDS011;11853;48.080;11.960;2023-07-20T14:51:44;2.25;;;1.80;;
23362;SDS011;11853;48.080;11.960;2023-07-20T14:54:12;2.65;;;2.00;;
23362;SDS011;11853;48.080;11.960;2023-07-20T14:56:38;2.33;;;2.13;;
23362;SDS011;11853;48.080;11.960;2023-07-20T14:59:05;2.20;;;2.00;;
23362;SDS011;11853;48.080;11.960;2023-07-20T15:01:31;2.17;;;2.05;;